sensor_id;sensor_type;location;lat;lon;timestamp;temperature;humidity
73780;SHT30;62093;37.614;15.072;2023-05-13T00:00:37;17.99;64.51
73780;SHT30;62093;37.614;15.072;2023-05-13T00:03:03;18.00;64.58
73780;SHT30;62093;37.614;15.072;2023-05-13T00:05:29;17.99;64.70
73780;SHT30;62093;37.614;15.072;2023-05-13T00:07:54;18.02;64.72
73780;SHT30;62093;37.614;15.072;2023-05-13T00:10:20;18.03;64.75
73780;SHT30;62093;37.614;15.072;2023-05-13T00:12:46;18.02;64.71
73780;SHT30;62093;37.614;15.072;2023-05-13T00:15:12;18.00;64.70
73780;SHT30;62093;37.614;15.072;2023-05-13T00:17:38;17.99;64.72
73780;SHT30;62093;37.614;15.072;2023-05-13T00:20:05;17.99;65.01
73780;SHT30;62093;37.614;15.072;2023-05-13T00:22:31;18.00;65.31
73780;SHT30;62093;37.614;15.072;2023-05-13T00:24:57;17.96;65.12
73780;SHT30;62093;37.614;15.072;2023-05-13T00:27:23;17.97;65.23
73780;SHT30;62093;37.614;15.072;2023-05-13T00:29:49;17.99;65.29
73780;SHT30;62093;37.614;15.072;2023-05-13T00:32:15;17.99;65.50
73780;SHT30;62093;37.614;15.072;2023-05-13T00:34:41;17.96;65.85
73780;SHT30;62093;37.614;15.072;2023-05-13T00:37:07;17.97;65.96
73780;SHT30;62093;37.614;15.072;2023-05-13T00:39:35;17.97;66.06
73780;SHT30;62093;37.614;15.072;2023-05-13T00:42:00;17.96;66.01
73780;SHT30;62093;37.614;15.072;2023-05-13T00:44:29;17.97;66.11
73780;SHT30;62093;37.614;15.072;2023-05-13T00:46:55;17.95;65.94
73780;SHT30;62093;37.614;15.072;2023-05-13T00:49:21;17.96;66.36
73780;SHT30;62093;37.614;15.072;2023-05-13T00:51:47;17.97;66.20
73780;SHT30;62093;37.614;15.072;2023-05-13T00:54:13;17.95;66.34
73780;SHT30;62093;37.614;15.072;2023-05-13T00:56:39;17.92;66.37
73780;SHT30;62093;37.614;15.072;2023-05-13T00:59:04;17.92;66.26
73780;SHT30;62093;37.614;15.072;2023-05-13T01:01:37;17.93;66.40
73780;SHT30;62093;37.614;15.072;2023-05-13T01:04:38;17.89;66.18
73780;SHT30;62093;37.614;15.072;2023-05-13T01:07:19;17.90;66.27
73780;SHT30;62093;37.614;15.072;2023-05-13T01:10:14;17.90;66.23
73780;SHT30;62093;37.614;15.072;2023-05-13T01:12:45;17.90;66.67
73780;SHT30;62093;37.614;15.072;2023-05-13T01:15:18;17.93;66.66
73780;SHT30;62093;37.614;15.072;2023-05-13T01:20:32;17.90;66.41
73780;SHT30;62093;37.614;15.072;2023-05-13T01:22:58;17.85;66.34
73780;SHT30;62093;37.614;15.072;2023-05-13T01:25:24;17.85;66.36
73780;SHT30;62093;37.614;15.072;2023-05-13T01:27:51;17.86;66.31
73780;SHT30;62093;37.614;15.072;2023-05-13T01:30:19;17.87;66.31
73780;SHT30;62093;37.614;15.072;2023-05-13T01:32:47;17.89;66.36
73780;SHT30;62093;37.614;15.072;2023-05-13T01:35:15;17.87;65.98
73780;SHT30;62093;37.614;15.072;2023-05-13T01:37:44;17.85;66.02
73780;SHT30;62093;37.614;15.072;2023-05-13T01:40:12;17.85;65.75
73780;SHT30;62093;37.614;15.072;2023-05-13T01:42:38;17.86;65.51
73780;SHT30;62093;37.614;15.072;2023-05-13T01:45:05;17.83;65.71
73780;SHT30;62093;37.614;15.072;2023-05-13T01:47:32;17.86;65.60
73780;SHT30;62093;37.614;15.072;2023-05-13T01:49:58;17.85;64.47
73780;SHT30;62093;37.614;15.072;2023-05-13T01:52:24;17.85;64.41
73780;SHT30;62093;37.614;15.072;2023-05-13T01:54:50;17.81;64.48
73780;SHT30;62093;37.614;15.072;2023-05-13T01:57:17;17.83;64.54
73780;SHT30;62093;37.614;15.072;2023-05-13T01:59:43;17.85;63.46
73780;SHT30;62093;37.614;15.072;2023-05-13T02:02:09;17.85;62.95
73780;SHT30;62093;37.614;15.072;2023-05-13T02:04:35;17.81;63.80
73780;SHT30;62093;37.614;15.072;2023-05-13T02:07:01;17.81;63.63
73780;SHT30;62093;37.614;15.072;2023-05-13T02:09:30;17.82;64.13
73780;SHT30;62093;37.614;15.072;2023-05-13T02:11:57;17.86;64.39
73780;SHT30;62093;37.614;15.072;2023-05-13T02:14:23;17.82;63.78
73780;SHT30;62093;37.614;15.072;2023-05-13T02:16:49;17.85;63.86
73780;SHT30;62093;37.614;15.072;2023-05-13T02:19:15;17.82;63.78
73780;SHT30;62093;37.614;15.072;2023-05-13T02:21:41;17.81;63.97
73780;SHT30;62093;37.614;15.072;2023-05-13T02:24:08;17.81;63.40
73780;SHT30;62093;37.614;15.072;2023-05-13T02:26:34;17.82;63.85
73780;SHT30;62093;37.614;15.072;2023-05-13T02:29:00;17.81;62.74
73780;SHT30;62093;37.614;15.072;2023-05-13T02:31:26;17.81;63.08
73780;SHT30;62093;37.614;15.072;2023-05-13T02:33:52;17.76;63.06
73780;SHT30;62093;37.614;15.072;2023-05-13T02:36:19;17.82;63.29
73780;SHT30;62093;37.614;15.072;2023-05-13T02:38:46;17.81;62.93
73780;SHT30;62093;37.614;15.072;2023-05-13T02:41:13;17.78;62.72
73780;SHT30;62093;37.614;15.072;2023-05-13T02:43:39;17.78;61.89
73780;SHT30;62093;37.614;15.072;2023-05-13T02:46:05;17.78;61.25
73780;SHT30;62093;37.614;15.072;2023-05-13T02:48:32;17.78;61.41
73780;SHT30;62093;37.614;15.072;2023-05-13T02:50:59;17.75;62.33
73780;SHT30;62093;37.614;15.072;2023-05-13T02:53:25;17.79;62.11
73780;SHT30;62093;37.614;15.072;2023-05-13T02:55:56;17.75;62.01
73780;SHT30;62093;37.614;15.072;2023-05-13T02:58:25;17.78;62.02
73780;SHT30;62093;37.614;15.072;2023-05-13T03:00:51;17.75;62.02
73780;SHT30;62093;37.614;15.072;2023-05-13T03:03:17;17.75;61.66
73780;SHT30;62093;37.614;15.072;2023-05-13T03:05:43;17.71;61.66
73780;SHT30;62093;37.614;15.072;2023-05-13T03:08:09;17.75;61.40
73780;SHT30;62093;37.614;15.072;2023-05-13T03:10:36;17.75;61.86
73780;SHT30;62093;37.614;15.072;2023-05-13T03:13:02;17.72;61.42
73780;SHT30;62093;37.614;15.072;2023-05-13T03:15:28;17.72;61.25
73780;SHT30;62093;37.614;15.072;2023-05-13T03:17:54;17.72;61.04
73780;SHT30;62093;37.614;15.072;2023-05-13T03:20:20;17.71;60.60
73780;SHT30;62093;37.614;15.072;2023-05-13T03:22:46;17.71;61.96
73780;SHT30;62093;37.614;15.072;2023-05-13T03:25:12;17.71;61.31
73780;SHT30;62093;37.614;15.072;2023-05-13T03:27:49;17.75;61.59
73780;SHT30;62093;37.614;15.072;2023-05-13T03:30:17;17.75;62.36
73780;SHT30;62093;37.614;15.072;2023-05-13T03:32:49;17.75;62.71
73780;SHT30;62093;37.614;15.072;2023-05-13T03:35:15;17.78;63.15
73780;SHT30;62093;37.614;15.072;2023-05-13T03:37:42;17.78;63.38
73780;SHT30;62093;37.614;15.072;2023-05-13T03:40:09;17.76;63.84
73780;SHT30;62093;37.614;15.072;2023-05-13T03:42:35;17.79;64.61
73780;SHT30;62093;37.614;15.072;2023-05-13T03:45:03;17.79;65.95
73780;SHT30;62093;37.614;15.072;2023-05-13T03:47:32;17.78;65.96
73780;SHT30;62093;37.614;15.072;2023-05-13T03:50:01;17.78;65.12
73780;SHT30;62093;37.614;15.072;2023-05-13T03:52:33;17.75;66.28
73780;SHT30;62093;37.614;15.072;2023-05-13T03:54:59;17.78;65.96
73780;SHT30;62093;37.614;15.072;2023-05-13T03:57:25;17.76;65.52
73780;SHT30;62093;37.614;15.072;2023-05-13T03:59:51;17.73;66.02
73780;SHT30;62093;37.614;15.072;2023-05-13T04:02:17;17.73;66.12
73780;SHT30;62093;37.614;15.072;2023-05-13T04:04:46;17.73;66.77
73780;SHT30;62093;37.614;15.072;2023-05-13T04:07:11;17.72;66.31
73780;SHT30;62093;37.614;15.072;2023-05-13T04:09:37;17.73;66.04
73780;SHT30;62093;37.614;15.072;2023-05-13T04:12:04;17.73;66.41
73780;SHT30;62093;37.614;15.072;2023-05-13T04:14:30;17.73;66.38
73780;SHT30;62093;37.614;15.072;2023-05-13T04:16:56;17.76;67.39
73780;SHT30;62093;37.614;15.072;2023-05-13T04:19:22;17.81;67.33
73780;SHT30;62093;37.614;15.072;2023-05-13T04:21:48;17.83;66.81
73780;SHT30;62093;37.614;15.072;2023-05-13T04:24:14;17.79;67.08
73780;SHT30;62093;37.614;15.072;2023-05-13T04:26:40;17.78;67.06
73780;SHT30;62093;37.614;15.072;2023-05-13T04:29:06;17.75;67.17
73780;SHT30;62093;37.614;15.072;2023-05-13T04:31:32;17.78;66.83
73780;SHT30;62093;37.614;15.072;2023-05-13T04:33:58;17.81;67.22
73780;SHT30;62093;37.614;15.072;2023-05-13T04:36:24;17.82;67.15
73780;SHT30;62093;37.614;15.072;2023-05-13T04:38:51;17.79;67.41
73780;SHT30;62093;37.614;15.072;2023-05-13T04:41:17;17.78;67.04
73780;SHT30;62093;37.614;15.072;2023-05-13T04:43:44;17.79;66.89
73780;SHT30;62093;37.614;15.072;2023-05-13T04:46:11;17.75;66.79
73780;SHT30;62093;37.614;15.072;2023-05-13T04:48:37;17.75;66.64
73780;SHT30;62093;37.614;15.072;2023-05-13T04:51:03;17.78;66.69
73780;SHT30;62093;37.614;15.072;2023-05-13T04:53:29;17.78;66.81
73780;SHT30;62093;37.614;15.072;2023-05-13T04:55:59;17.79;67.10
73780;SHT30;62093;37.614;15.072;2023-05-13T04:58:27;17.81;66.72
73780;SHT30;62093;37.614;15.072;2023-05-13T05:00:53;17.78;66.62
73780;SHT30;62093;37.614;15.072;2023-05-13T05:03:20;17.79;66.75
73780;SHT30;62093;37.614;15.072;2023-05-13T05:05:46;17.79;66.72
73780;SHT30;62093;37.614;15.072;2023-05-13T05:08:14;17.78;66.69
73780;SHT30;62093;37.614;15.072;2023-05-13T05:10:41;17.76;66.78
73780;SHT30;62093;37.614;15.072;2023-05-13T05:13:08;17.76;66.86
73780;SHT30;62093;37.614;15.072;2023-05-13T05:15:35;17.76;66.97
73780;SHT30;62093;37.614;15.072;2023-05-13T05:18:03;17.72;66.91
73780;SHT30;62093;37.614;15.072;2023-05-13T05:20:31;17.73;67.10
73780;SHT30;62093;37.614;15.072;2023-05-13T05:22:59;17.75;66.90
73780;SHT30;62093;37.614;15.072;2023-05-13T05:25:25;17.73;67.01
73780;SHT30;62093;37.614;15.072;2023-05-13T05:27:51;17.75;67.03
73780;SHT30;62093;37.614;15.072;2023-05-13T05:30:17;17.71;67.36
73780;SHT30;62093;37.614;15.072;2023-05-13T05:32:47;17.75;67.42
73780;SHT30;62093;37.614;15.072;2023-05-13T05:35:14;17.71;67.51
73780;SHT30;62093;37.614;15.072;2023-05-13T05:37:41;17.68;67.48
73780;SHT30;62093;37.614;15.072;2023-05-13T05:40:08;17.69;67.59
73780;SHT30;62093;37.614;15.072;2023-05-13T05:42:37;17.71;68.29
73780;SHT30;62093;37.614;15.072;2023-05-13T05:45:03;17.69;67.99
73780;SHT30;62093;37.614;15.072;2023-05-13T05:47:29;17.69;67.88
73780;SHT30;62093;37.614;15.072;2023-05-13T05:49:55;17.71;67.85
73780;SHT30;62093;37.614;15.072;2023-05-13T05:52:21;17.68;67.25
73780;SHT30;62093;37.614;15.072;2023-05-13T05:54:47;17.68;67.20
73780;SHT30;62093;37.614;15.072;2023-05-13T05:57:13;17.68;67.47
73780;SHT30;62093;37.614;15.072;2023-05-13T05:59:39;17.66;67.31
73780;SHT30;62093;37.614;15.072;2023-05-13T06:02:06;17.68;67.21
73780;SHT30;62093;37.614;15.072;2023-05-13T06:04:31;17.69;67.27
73780;SHT30;62093;37.614;15.072;2023-05-13T06:06:57;17.66;67.49
73780;SHT30;62093;37.614;15.072;2023-05-13T06:09:24;17.69;67.68
73780;SHT30;62093;37.614;15.072;2023-05-13T06:11:50;17.69;67.68
73780;SHT30;62093;37.614;15.072;2023-05-13T06:14:16;17.68;67.68
73780;SHT30;62093;37.614;15.072;2023-05-13T06:16:42;17.69;67.65
73780;SHT30;62093;37.614;15.072;2023-05-13T06:19:08;17.68;67.61
73780;SHT30;62093;37.614;15.072;2023-05-13T06:21:34;17.66;67.78
73780;SHT30;62093;37.614;15.072;2023-05-13T06:24:00;17.62;67.69
73780;SHT30;62093;37.614;15.072;2023-05-13T06:26:27;17.61;68.13
73780;SHT30;62093;37.614;15.072;2023-05-13T06:28:54;17.63;68.24
73780;SHT30;62093;37.614;15.072;2023-05-13T06:31:20;17.61;68.18
73780;SHT30;62093;37.614;15.072;2023-05-13T06:33:45;17.59;68.80
73780;SHT30;62093;37.614;15.072;2023-05-13T06:36:11;17.58;68.89
73780;SHT30;62093;37.614;15.072;2023-05-13T06:38:38;17.61;68.85
73780;SHT30;62093;37.614;15.072;2023-05-13T06:44:38;17.56;69.52
73780;SHT30;62093;37.614;15.072;2023-05-13T06:47:05;17.55;69.11
73780;SHT30;62093;37.614;15.072;2023-05-13T06:49:34;17.58;69.64
73780;SHT30;62093;37.614;15.072;2023-05-13T06:52:00;17.56;69.29
73780;SHT30;62093;37.614;15.072;2023-05-13T06:54:26;17.58;69.95
73780;SHT30;62093;37.614;15.072;2023-05-13T06:56:53;17.56;70.23
73780;SHT30;62093;37.614;15.072;2023-05-13T06:59:19;17.61;69.15
73780;SHT30;62093;37.614;15.072;2023-05-13T07:01:46;17.59;69.12
73780;SHT30;62093;37.614;15.072;2023-05-13T07:04:12;17.59;69.93
73780;SHT30;62093;37.614;15.072;2023-05-13T07:06:37;17.58;69.86
73780;SHT30;62093;37.614;15.072;2023-05-13T07:09:03;17.58;69.57
73780;SHT30;62093;37.614;15.072;2023-05-13T07:11:29;17.59;69.97
73780;SHT30;62093;37.614;15.072;2023-05-13T07:13:55;17.62;69.32
73780;SHT30;62093;37.614;15.072;2023-05-13T07:16:20;17.63;68.97
73780;SHT30;62093;37.614;15.072;2023-05-13T07:18:46;17.63;69.51
73780;SHT30;62093;37.614;15.072;2023-05-13T07:21:13;17.62;68.42
73780;SHT30;62093;37.614;15.072;2023-05-13T07:23:39;17.65;68.33
73780;SHT30;62093;37.614;15.072;2023-05-13T07:26:05;17.68;68.42
73780;SHT30;62093;37.614;15.072;2023-05-13T07:28:30;17.71;68.08
73780;SHT30;62093;37.614;15.072;2023-05-13T07:30:57;17.66;68.18
73780;SHT30;62093;37.614;15.072;2023-05-13T07:33:23;17.69;68.51
73780;SHT30;62093;37.614;15.072;2023-05-13T07:35:49;17.66;68.83
73780;SHT30;62093;37.614;15.072;2023-05-13T07:38:14;17.66;69.24
73780;SHT30;62093;37.614;15.072;2023-05-13T07:40:40;17.66;68.71
73780;SHT30;62093;37.614;15.072;2023-05-13T07:43:06;17.65;69.07
73780;SHT30;62093;37.614;15.072;2023-05-13T07:45:32;17.69;68.21
73780;SHT30;62093;37.614;15.072;2023-05-13T07:47:59;17.69;68.49
73780;SHT30;62093;37.614;15.072;2023-05-13T07:50:24;17.72;68.02
73780;SHT30;62093;37.614;15.072;2023-05-13T07:52:50;17.71;68.36
73780;SHT30;62093;37.614;15.072;2023-05-13T07:55:16;17.69;68.68
73780;SHT30;62093;37.614;15.072;2023-05-13T07:57:43;17.68;70.05
73780;SHT30;62093;37.614;15.072;2023-05-13T08:00:09;17.71;69.04
73780;SHT30;62093;37.614;15.072;2023-05-13T08:02:42;17.69;68.53
73780;SHT30;62093;37.614;15.072;2023-05-13T08:05:08;17.69;68.40
73780;SHT30;62093;37.614;15.072;2023-05-13T08:07:35;17.72;68.39
73780;SHT30;62093;37.614;15.072;2023-05-13T08:10:01;17.75;68.38
73780;SHT30;62093;37.614;15.072;2023-05-13T08:12:27;17.76;68.33
73780;SHT30;62093;37.614;15.072;2023-05-13T08:14:53;17.79;68.39
73780;SHT30;62093;37.614;15.072;2023-05-13T08:17:19;17.79;68.59
73780;SHT30;62093;37.614;15.072;2023-05-13T08:19:45;17.82;68.57
73780;SHT30;62093;37.614;15.072;2023-05-13T08:22:11;17.87;68.97
73780;SHT30;62093;37.614;15.072;2023-05-13T08:24:37;17.87;68.76
73780;SHT30;62093;37.614;15.072;2023-05-13T08:27:05;17.86;68.89
73780;SHT30;62093;37.614;15.072;2023-05-13T08:29:31;17.89;69.08
73780;SHT30;62093;37.614;15.072;2023-05-13T08:31:56;17.87;69.01
73780;SHT30;62093;37.614;15.072;2023-05-13T08:34:22;17.92;68.41
73780;SHT30;62093;37.614;15.072;2023-05-13T08:36:48;17.89;68.75
73780;SHT30;62093;37.614;15.072;2023-05-13T08:39:14;17.87;68.74
73780;SHT30;62093;37.614;15.072;2023-05-13T08:41:40;17.86;68.67
73780;SHT30;62093;37.614;15.072;2023-05-13T08:44:08;17.87;68.75
73780;SHT30;62093;37.614;15.072;2023-05-13T08:46:37;17.85;68.67
73780;SHT30;62093;37.614;15.072;2023-05-13T08:49:06;17.86;68.66
73780;SHT30;62093;37.614;15.072;2023-05-13T08:51:33;17.86;68.45
73780;SHT30;62093;37.614;15.072;2023-05-13T08:54:00;17.85;68.36
73780;SHT30;62093;37.614;15.072;2023-05-13T08:56:26;17.86;68.58
73780;SHT30;62093;37.614;15.072;2023-05-13T08:58:55;17.85;68.38
73780;SHT30;62093;37.614;15.072;2023-05-13T09:01:24;17.89;68.23
73780;SHT30;62093;37.614;15.072;2023-05-13T09:03:57;17.89;68.21
73780;SHT30;62093;37.614;15.072;2023-05-13T09:06:24;17.89;68.22
73780;SHT30;62093;37.614;15.072;2023-05-13T09:08:50;17.92;68.48
73780;SHT30;62093;37.614;15.072;2023-05-13T09:11:16;17.90;68.18
73780;SHT30;62093;37.614;15.072;2023-05-13T09:13:42;17.90;68.06
73780;SHT30;62093;37.614;15.072;2023-05-13T09:16:10;17.92;68.15
73780;SHT30;62093;37.614;15.072;2023-05-13T09:18:38;17.90;68.15
73780;SHT30;62093;37.614;15.072;2023-05-13T09:21:23;17.95;68.52
73780;SHT30;62093;37.614;15.072;2023-05-13T09:23:55;17.93;68.69
73780;SHT30;62093;37.614;15.072;2023-05-13T09:26:28;17.95;68.62
73780;SHT30;62093;37.614;15.072;2023-05-13T09:29:23;17.93;68.53
73780;SHT30;62093;37.614;15.072;2023-05-13T09:31:54;17.93;68.97
73780;SHT30;62093;37.614;15.072;2023-05-13T09:34:31;17.93;68.70
73780;SHT30;62093;37.614;15.072;2023-05-13T09:37:07;17.93;68.47
73780;SHT30;62093;37.614;15.072;2023-05-13T09:39:42;17.92;68.57
73780;SHT30;62093;37.614;15.072;2023-05-13T09:42:17;17.95;68.52
73780;SHT30;62093;37.614;15.072;2023-05-13T09:44:45;17.97;68.49
73780;SHT30;62093;37.614;15.072;2023-05-13T09:47:12;17.99;68.64
73780;SHT30;62093;37.614;15.072;2023-05-13T09:49:40;18.02;69.43
73780;SHT30;62093;37.614;15.072;2023-05-13T09:52:10;18.00;69.48
73780;SHT30;62093;37.614;15.072;2023-05-13T09:54:37;18.02;68.96
73780;SHT30;62093;37.614;15.072;2023-05-13T09:57:03;18.00;68.91
73780;SHT30;62093;37.614;15.072;2023-05-13T09:59:33;17.99;68.53
73780;SHT30;62093;37.614;15.072;2023-05-13T10:02:04;17.99;68.67
73780;SHT30;62093;37.614;15.072;2023-05-13T10:04:30;17.97;68.46
73780;SHT30;62093;37.614;15.072;2023-05-13T10:06:57;17.99;68.81
73780;SHT30;62093;37.614;15.072;2023-05-13T10:09:25;17.99;68.61
73780;SHT30;62093;37.614;15.072;2023-05-13T10:11:52;18.00;68.72
73780;SHT30;62093;37.614;15.072;2023-05-13T10:14:19;17.99;68.53
73780;SHT30;62093;37.614;15.072;2023-05-13T10:16:45;18.00;68.96
73780;SHT30;62093;37.614;15.072;2023-05-13T10:19:12;18.00;68.60
73780;SHT30;62093;37.614;15.072;2023-05-13T10:21:38;18.02;68.15
73780;SHT30;62093;37.614;15.072;2023-05-13T10:24:05;18.04;68.37
73780;SHT30;62093;37.614;15.072;2023-05-13T10:26:32;18.03;68.38
73780;SHT30;62093;37.614;15.072;2023-05-13T10:28:59;18.06;68.42
73780;SHT30;62093;37.614;15.072;2023-05-13T10:31:25;18.04;68.20
73780;SHT30;62093;37.614;15.072;2023-05-13T10:33:52;18.07;68.00
73780;SHT30;62093;37.614;15.072;2023-05-13T10:44:06;18.12;68.92
73780;SHT30;62093;37.614;15.072;2023-05-13T10:46:33;18.12;68.80
73780;SHT30;62093;37.614;15.072;2023-05-13T10:48:59;18.14;69.25
73780;SHT30;62093;37.614;15.072;2023-05-13T10:51:25;18.13;68.73
73780;SHT30;62093;37.614;15.072;2023-05-13T10:53:53;18.14;69.72
73780;SHT30;62093;37.614;15.072;2023-05-13T10:56:20;18.16;69.00
73780;SHT30;62093;37.614;15.072;2023-05-13T10:59:03;18.10;68.47
73780;SHT30;62093;37.614;15.072;2023-05-13T11:01:36;18.13;68.78
73780;SHT30;62093;37.614;15.072;2023-05-13T11:04:13;18.12;68.89
73780;SHT30;62093;37.614;15.072;2023-05-13T11:06:41;18.14;69.97
73780;SHT30;62093;37.614;15.072;2023-05-13T11:09:12;18.14;69.32
73780;SHT30;62093;37.614;15.072;2023-05-13T11:11:39;18.16;70.28
73780;SHT30;62093;37.614;15.072;2023-05-13T11:14:24;18.16;70.32
73780;SHT30;62093;37.614;15.072;2023-05-13T11:19:37;18.16;70.54
73780;SHT30;62093;37.614;15.072;2023-05-13T11:22:07;18.14;70.32
73780;SHT30;62093;37.614;15.072;2023-05-13T11:24:34;18.16;69.58
73780;SHT30;62093;37.614;15.072;2023-05-13T11:27:17;18.16;69.61
73780;SHT30;62093;37.614;15.072;2023-05-13T11:32:14;18.17;69.23
73780;SHT30;62093;37.614;15.072;2023-05-13T11:34:49;18.17;69.42
73780;SHT30;62093;37.614;15.072;2023-05-13T11:37:16;18.16;69.16
73780;SHT30;62093;37.614;15.072;2023-05-13T11:39:42;18.17;69.32
73780;SHT30;62093;37.614;15.072;2023-05-13T11:42:09;18.17;69.30
73780;SHT30;62093;37.614;15.072;2023-05-13T11:44:44;18.16;69.06
73780;SHT30;62093;37.614;15.072;2023-05-13T11:47:10;18.20;69.04
73780;SHT30;62093;37.614;15.072;2023-05-13T11:49:40;18.17;68.88
73780;SHT30;62093;37.614;15.072;2023-05-13T11:52:12;18.17;68.84
73780;SHT30;62093;37.614;15.072;2023-05-13T11:54:51;18.20;69.32
73780;SHT30;62093;37.614;15.072;2023-05-13T11:57:28;18.18;69.03
73780;SHT30;62093;37.614;15.072;2023-05-13T12:00:04;18.16;68.85
73780;SHT30;62093;37.614;15.072;2023-05-13T12:05:09;18.17;68.70
73780;SHT30;62093;37.614;15.072;2023-05-13T12:07:36;18.18;68.92
73780;SHT30;62093;37.614;15.072;2023-05-13T12:10:04;18.18;68.73
73780;SHT30;62093;37.614;15.072;2023-05-13T12:12:33;18.16;68.62
73780;SHT30;62093;37.614;15.072;2023-05-13T12:15:01;18.20;68.55
73780;SHT30;62093;37.614;15.072;2023-05-13T12:17:27;18.18;68.48
73780;SHT30;62093;37.614;15.072;2023-05-13T12:22:33;18.18;68.53
73780;SHT30;62093;37.614;15.072;2023-05-13T12:25:01;18.20;68.36
73780;SHT30;62093;37.614;15.072;2023-05-13T12:27:30;18.22;68.15
73780;SHT30;62093;37.614;15.072;2023-05-13T12:29:56;18.22;68.13
73780;SHT30;62093;37.614;15.072;2023-05-13T12:32:23;18.22;68.02
73780;SHT30;62093;37.614;15.072;2023-05-13T12:34:50;18.22;68.15
73780;SHT30;62093;37.614;15.072;2023-05-13T12:37:16;18.23;68.14
73780;SHT30;62093;37.614;15.072;2023-05-13T12:39:43;18.23;68.13
73780;SHT30;62093;37.614;15.072;2023-05-13T12:42:16;18.23;68.00
73780;SHT30;62093;37.614;15.072;2023-05-13T12:44:45;18.22;67.92
73780;SHT30;62093;37.614;15.072;2023-05-13T12:47:12;18.22;67.90
73780;SHT30;62093;37.614;15.072;2023-05-13T12:49:56;18.23;67.70
73780;SHT30;62093;37.614;15.072;2023-05-13T12:52:25;18.23;67.75
73780;SHT30;62093;37.614;15.072;2023-05-13T12:54:51;18.23;67.82
73780;SHT30;62093;37.614;15.072;2023-05-13T12:57:17;18.24;67.90
73780;SHT30;62093;37.614;15.072;2023-05-13T12:59:45;18.24;67.73
73780;SHT30;62093;37.614;15.072;2023-05-13T13:02:12;18.24;67.72
73780;SHT30;62093;37.614;15.072;2023-05-13T13:04:38;18.24;67.70
73780;SHT30;62093;37.614;15.072;2023-05-13T13:07:04;18.24;67.77
73780;SHT30;62093;37.614;15.072;2023-05-13T13:09:34;18.24;67.65
73780;SHT30;62093;37.614;15.072;2023-05-13T13:12:00;18.22;67.60
73780;SHT30;62093;37.614;15.072;2023-05-13T13:14:26;18.26;67.74
73780;SHT30;62093;37.614;15.072;2023-05-13T13:16:52;18.24;67.69
73780;SHT30;62093;37.614;15.072;2023-05-13T13:19:18;18.23;67.62
73780;SHT30;62093;37.614;15.072;2023-05-13T13:21:45;18.26;67.71
73780;SHT30;62093;37.614;15.072;2023-05-13T13:24:11;18.24;67.69
73780;SHT30;62093;37.614;15.072;2023-05-13T13:26:36;18.27;67.70
73780;SHT30;62093;37.614;15.072;2023-05-13T13:29:02;18.27;67.72
73780;SHT30;62093;37.614;15.072;2023-05-13T13:31:29;18.26;67.70
73780;SHT30;62093;37.614;15.072;2023-05-13T13:33:55;18.24;67.65
73780;SHT30;62093;37.614;15.072;2023-05-13T13:36:23;18.23;67.69
73780;SHT30;62093;37.614;15.072;2023-05-13T13:38:49;18.24;67.69
73780;SHT30;62093;37.614;15.072;2023-05-13T13:41:15;18.27;67.61
73780;SHT30;62093;37.614;15.072;2023-05-13T13:43:40;18.27;67.53
73780;SHT30;62093;37.614;15.072;2023-05-13T13:46:07;18.24;67.32
73780;SHT30;62093;37.614;15.072;2023-05-13T13:48:33;18.22;67.21
73780;SHT30;62093;37.614;15.072;2023-05-13T13:50:59;18.22;67.11
73780;SHT30;62093;37.614;15.072;2023-05-13T13:53:26;18.23;67.24
73780;SHT30;62093;37.614;15.072;2023-05-13T13:55:52;18.24;67.27
73780;SHT30;62093;37.614;15.072;2023-05-13T13:58:18;18.22;67.37
73780;SHT30;62093;37.614;15.072;2023-05-13T14:00:44;18.24;67.49
73780;SHT30;62093;37.614;15.072;2023-05-13T14:03:10;18.23;67.50
73780;SHT30;62093;37.614;15.072;2023-05-13T14:05:37;18.22;67.43
73780;SHT30;62093;37.614;15.072;2023-05-13T14:08:03;18.20;67.36
73780;SHT30;62093;37.614;15.072;2023-05-13T14:10:29;18.23;67.21
73780;SHT30;62093;37.614;15.072;2023-05-13T14:12:55;18.24;67.15
73780;SHT30;62093;37.614;15.072;2023-05-13T14:15:21;18.26;67.23
73780;SHT30;62093;37.614;15.072;2023-05-13T14:17:48;18.24;67.26
73780;SHT30;62093;37.614;15.072;2023-05-13T14:20:14;18.27;67.32
73780;SHT30;62093;37.614;15.072;2023-05-13T14:22:41;18.26;67.28
73780;SHT30;62093;37.614;15.072;2023-05-13T14:25:07;18.27;67.08
73780;SHT30;62093;37.614;15.072;2023-05-13T14:27:35;18.24;67.11
73780;SHT30;62093;37.614;15.072;2023-05-13T14:30:01;18.26;67.16
73780;SHT30;62093;37.614;15.072;2023-05-13T14:32:27;18.29;67.11
73780;SHT30;62093;37.614;15.072;2023-05-13T14:34:54;18.27;67.13
73780;SHT30;62093;37.614;15.072;2023-05-13T14:37:20;18.26;67.37
73780;SHT30;62093;37.614;15.072;2023-05-13T14:39:46;18.29;67.80
73780;SHT30;62093;37.614;15.072;2023-05-13T14:42:11;18.33;67.80
73780;SHT30;62093;37.614;15.072;2023-05-13T14:44:37;18.33;67.68
73780;SHT30;62093;37.614;15.072;2023-05-13T14:47:06;18.34;67.45
73780;SHT30;62093;37.614;15.072;2023-05-13T14:49:32;18.34;67.52
73780;SHT30;62093;37.614;15.072;2023-05-13T14:51:58;18.36;67.63
73780;SHT30;62093;37.614;15.072;2023-05-13T14:54:24;18.36;67.41
73780;SHT30;62093;37.614;15.072;2023-05-13T14:56:50;18.34;67.17
73780;SHT30;62093;37.614;15.072;2023-05-13T14:59:17;18.36;66.97
73780;SHT30;62093;37.614;15.072;2023-05-13T15:01:43;18.33;67.07
73780;SHT30;62093;37.614;15.072;2023-05-13T15:04:10;18.34;67.12
73780;SHT30;62093;37.614;15.072;2023-05-13T15:06:36;18.34;67.31
73780;SHT30;62093;37.614;15.072;2023-05-13T15:09:03;18.37;67.21
73780;SHT30;62093;37.614;15.072;2023-05-13T15:11:30;18.36;66.90
73780;SHT30;62093;37.614;15.072;2023-05-13T15:13:56;18.37;66.86
73780;SHT30;62093;37.614;15.072;2023-05-13T15:16:21;18.37;66.84
73780;SHT30;62093;37.614;15.072;2023-05-13T15:18:47;18.41;66.96
73780;SHT30;62093;37.614;15.072;2023-05-13T15:21:15;18.43;66.86
73780;SHT30;62093;37.614;15.072;2023-05-13T15:23:40;18.45;66.78
73780;SHT30;62093;37.614;15.072;2023-05-13T15:26:06;18.45;66.85
73780;SHT30;62093;37.614;15.072;2023-05-13T15:28:32;18.48;66.66
73780;SHT30;62093;37.614;15.072;2023-05-13T15:30:58;18.51;66.19
73780;SHT30;62093;37.614;15.072;2023-05-13T15:33:23;18.53;66.04
73780;SHT30;62093;37.614;15.072;2023-05-13T15:35:51;18.51;66.31
73780;SHT30;62093;37.614;15.072;2023-05-13T15:38:17;18.51;66.63
73780;SHT30;62093;37.614;15.072;2023-05-13T15:40:43;18.53;66.58